sensor_id;sensor_type;location;lat;lon;timestamp;pressure;altitude;pressure_sealevel;temperature;humidity
21956;BME280;11142;49.930;8.606;2023-03-16T00:02:19;100602.34;;;0.33;100.00
21956;BME280;11142;49.930;8.606;2023-03-16T00:04:47;100598.03;;;0.37;100.00
21956;BME280;11142;49.930;8.606;2023-03-16T00:07:18;100608.44;;;0.25;100.00
21956;BME280;11142;49.930;8.606;2023-03-16T00:09:47;100601.88;;;0.04;100.00
21956;BME280;11142;49.930;8.606;2023-03-16T00:12:16;100608.84;;;-0.09;100.00
21956;BME280;11142;49.930;8.606;2023-03-16T00:14:46;100601.22;;;-0.10;100.00
21956;BME280;11142;49.930;8.606;2023-03-16T00:17:15;100599.38;;;0.01;100.00
21956;BME280;11142;49.930;8.606;2023-03-16T00:19:46;100595.09;;;0.03;100.00
21956;BME280;11142;49.930;8.606;2023-03-16T00:22:17;100588.22;;;0.07;100.00
21956;BME280;11142;49.930;8.606;2023-03-16T00:24:45;100592.53;;;0.05;100.00
21956;BME280;11142;49.930;8.606;2023-03-16T00:27:13;100586.59;;;0.01;100.00
21956;BME280;11142;49.930;8.606;2023-03-16T00:29:43;100586.53;;;0.09;100.00
21956;BME280;11142;49.930;8.606;2023-03-16T00:32:13;100588.38;;;-0.06;100.00
21956;BME280;11142;49.930;8.606;2023-03-16T00:34:42;100581.72;;;-0.16;100.00
21956;BME280;11142;49.930;8.606;2023-03-16T00:37:11;100588.50;;;-0.15;100.00
21956;BME280;11142;49.930;8.606;2023-03-16T00:39:41;100581.59;;;-0.05;100.00
21956;BME280;11142;49.930;8.606;2023-03-16T00:42:12;100574.69;;;0.02;100.00
21956;BME280;11142;49.930;8.606;2023-03-16T00:44:43;100573.00;;;0.02;100.00
21956;BME280;11142;49.930;8.606;2023-03-16T00:47:11;100568.63;;;0.12;100.00
21956;BME280;11142;49.930;8.606;2023-03-16T00:49:41;100575.34;;;0.17;100.00
21956;BME280;11142;49.930;8.606;2023-03-16T00:52:10;100569.34;;;0.20;100.00
21956;BME280;11142;49.930;8.606;2023-03-16T00:54:41;100564.38;;;0.11;100.00
21956;BME280;11142;49.930;8.606;2023-03-16T00:57:13;100566.88;;;0.15;100.00
21956;BME280;11142;49.930;8.606;2023-03-16T00:59:43;100566.81;;;0.20;100.00
21956;BME280;11142;49.930;8.606;2023-03-16T01:02:11;100562.59;;;0.19;100.00
21956;BME280;11142;49.930;8.606;2023-03-16T01:04:41;100573.59;;;0.21;100.00
21956;BME280;11142;49.930;8.606;2023-03-16T01:07:11;100572.66;;;0.28;100.00
21956;BME280;11142;49.930;8.606;2023-03-16T01:09:39;100571.34;;;-0.01;100.00
21956;BME280;11142;49.930;8.606;2023-03-16T01:12:09;100563.16;;;-0.27;100.00
21956;BME280;11142;49.930;8.606;2023-03-16T01:14:38;100570.03;;;-0.33;100.00
21956;BME280;11142;49.930;8.606;2023-03-16T01:17:08;100569.28;;;-0.41;100.00
21956;BME280;11142;49.930;8.606;2023-03-16T01:19:36;100563.25;;;-0.34;100.00
21956;BME280;11142;49.930;8.606;2023-03-16T01:22:05;100562.44;;;-0.38;100.00
21956;BME280;11142;49.930;8.606;2023-03-16T01:24:37;100563.31;;;-0.39;100.00
21956;BME280;11142;49.930;8.606;2023-03-16T01:27:06;100561.69;;;-0.44;100.00
21956;BME280;11142;49.930;8.606;2023-03-16T01:29:35;100560.91;;;-0.51;100.00
21956;BME280;11142;49.930;8.606;2023-03-16T01:32:04;100556.66;;;-0.54;100.00
21956;BME280;11142;49.930;8.606;2023-03-16T01:34:34;100550.81;;;-0.63;100.00
21956;BME280;11142;49.930;8.606;2023-03-16T01:37:03;100545.72;;;-0.62;100.00
21956;BME280;11142;49.930;8.606;2023-03-16T01:39:40;100543.09;;;-0.57;100.00
21956;BME280;11142;49.930;8.606;2023-03-16T01:42:13;100542.22;;;-0.53;100.00
21956;BME280;11142;49.930;8.606;2023-03-16T01:44:49;100538.00;;;-0.54;100.00
21956;BME280;11142;49.930;8.606;2023-03-16T01:47:18;100526.91;;;-0.51;100.00
21956;BME280;11142;49.930;8.606;2023-03-16T01:49:48;100527.78;;;-0.52;100.00
21956;BME280;11142;49.930;8.606;2023-03-16T01:52:24;100533.75;;;-0.55;100.00
21956;BME280;11142;49.930;8.606;2023-03-16T01:54:56;100521.81;;;-0.53;100.00
21956;BME280;11142;49.930;8.606;2023-03-16T01:57:26;100523.41;;;-0.41;100.00
21956;BME280;11142;49.930;8.606;2023-03-16T01:59:57;100525.94;;;-0.40;100.00
21956;BME280;11142;49.930;8.606;2023-03-16T02:05:51;100524.06;;;-0.26;100.00
21956;BME280;11142;49.930;8.606;2023-03-16T02:08:23;100512.00;;;-0.15;100.00
21956;BME280;11142;49.930;8.606;2023-03-16T02:10:53;100506.91;;;-0.15;100.00
21956;BME280;11142;49.930;8.606;2023-03-16T02:13:33;100497.63;;;-0.20;100.00
21956;BME280;11142;49.930;8.606;2023-03-16T02:16:05;100495.91;;;-0.18;100.00
21956;BME280;11142;49.930;8.606;2023-03-16T02:18:35;100496.75;;;-0.16;100.00
21956;BME280;11142;49.930;8.606;2023-03-16T02:21:06;100503.50;;;-0.14;100.00
21956;BME280;11142;49.930;8.606;2023-03-16T02:23:37;100509.41;;;-0.12;100.00
21956;BME280;11142;49.930;8.606;2023-03-16T02:26:06;100510.28;;;-0.13;100.00
21956;BME280;11142;49.930;8.606;2023-03-16T02:28:40;100506.09;;;-0.17;100.00
21956;BME280;11142;49.930;8.606;2023-03-16T02:31:17;100493.44;;;-0.23;100.00
21956;BME280;11142;49.930;8.606;2023-03-16T02:33:46;100490.91;;;-0.26;100.00
21956;BME280;11142;49.930;8.606;2023-03-16T02:36:18;100487.56;;;-0.31;100.00
21956;BME280;11142;49.930;8.606;2023-03-16T02:38:46;100490.13;;;-0.29;100.00
21956;BME280;11142;49.930;8.606;2023-03-16T02:41:17;100473.22;;;-0.36;100.00
21956;BME280;11142;49.930;8.606;2023-03-16T02:43:52;100471.50;;;-0.37;100.00
21956;BME280;11142;49.930;8.606;2023-03-16T02:46:27;100462.91;;;-0.29;100.00
21956;BME280;11142;49.930;8.606;2023-03-16T02:48:57;100463.56;;;-0.15;100.00
21956;BME280;11142;49.930;8.606;2023-03-16T02:51:28;100463.47;;;-0.09;100.00
21956;BME280;11142;49.930;8.606;2023-03-16T02:53:58;100462.44;;;0.05;100.00
21956;BME280;11142;49.930;8.606;2023-03-16T02:56:28;100460.63;;;0.10;100.00
21956;BME280;11142;49.930;8.606;2023-03-16T02:58:57;100465.69;;;0.16;100.00
21956;BME280;11142;49.930;8.606;2023-03-16T03:01:27;100465.59;;;0.20;100.00
21956;BME280;11142;49.930;8.606;2023-03-16T03:03:55;100459.00;;;0.07;100.00
21956;BME280;11142;49.930;8.606;2023-03-16T03:06:24;100458.13;;;0.07;100.00
21956;BME280;11142;49.930;8.606;2023-03-16T03:08:55;100460.44;;;0.25;100.00
21956;BME280;11142;49.930;8.606;2023-03-16T03:11:24;100454.38;;;0.29;100.00
21956;BME280;11142;49.930;8.606;2023-03-16T03:13:52;100450.97;;;0.30;100.00
21956;BME280;11142;49.930;8.606;2023-03-16T03:16:23;100448.47;;;0.27;100.00
21956;BME280;11142;49.930;8.606;2023-03-16T03:18:55;100450.09;;;0.32;100.00
21956;BME280;11142;49.930;8.606;2023-03-16T03:21:24;100453.13;;;0.54;100.00
21956;BME280;11142;49.930;8.606;2023-03-16T03:23:52;100448.28;;;0.39;100.00
21956;BME280;11142;49.930;8.606;2023-03-16T03:26:21;100440.06;;;0.20;100.00
21956;BME280;11142;49.930;8.606;2023-03-16T03:28:51;100454.44;;;0.27;100.00
21956;BME280;11142;49.930;8.606;2023-03-16T03:31:20;100452.63;;;0.32;100.00
21956;BME280;11142;49.930;8.606;2023-03-16T03:33:50;100453.53;;;0.31;100.00
21956;BME280;11142;49.930;8.606;2023-03-16T03:36:25;100453.78;;;0.15;100.00
21956;BME280;11142;49.930;8.606;2023-03-16T03:38:53;100448.81;;;0.06;100.00
21956;BME280;11142;49.930;8.606;2023-03-16T03:41:22;100453.63;;;0.24;100.00
21956;BME280;11142;49.930;8.606;2023-03-16T03:43:51;100451.88;;;0.26;100.00
21956;BME280;11142;49.930;8.606;2023-03-16T03:46:19;100456.22;;;0.21;100.00
21956;BME280;11142;49.930;8.606;2023-03-16T03:48:49;100454.63;;;0.14;100.00
21956;BME280;11142;49.930;8.606;2023-03-16T03:51:17;100450.47;;;0.08;100.00
21956;BME280;11142;49.930;8.606;2023-03-16T03:54:01;100454.16;;;-0.13;100.00
21956;BME280;11142;49.930;8.606;2023-03-16T03:56:48;100445.66;;;-0.12;100.00
21956;BME280;11142;49.930;8.606;2023-03-16T03:59:16;100446.47;;;-0.07;100.00
21956;BME280;11142;49.930;8.606;2023-03-16T04:02:17;100454.69;;;0.12;100.00
21956;BME280;11142;49.930;8.606;2023-03-16T04:04:49;100451.25;;;0.13;100.00
21956;BME280;11142;49.930;8.606;2023-03-16T04:07:17;100448.78;;;0.09;100.00
21956;BME280;11142;49.930;8.606;2023-03-16T04:09:48;100454.78;;;0.05;100.00
21956;BME280;11142;49.930;8.606;2023-03-16T04:12:40;100445.47;;;0.00;100.00
21956;BME280;11142;49.930;8.606;2023-03-16T04:15:11;100452.41;;;-0.08;100.00
21956;BME280;11142;49.930;8.606;2023-03-16T04:17:58;100458.41;;;-0.10;100.00
21956;BME280;11142;49.930;8.606;2023-03-16T04:20:28;100457.56;;;-0.11;100.00
21956;BME280;11142;49.930;8.606;2023-03-16T04:22:56;100447.41;;;-0.14;100.00
21956;BME280;11142;49.930;8.606;2023-03-16T04:25:26;100443.19;;;-0.18;100.00
21956;BME280;11142;49.930;8.606;2023-03-16T04:27:57;100436.44;;;-0.20;100.00
21956;BME280;11142;49.930;8.606;2023-03-16T04:30:28;100428.59;;;-0.07;100.00
21956;BME280;11142;49.930;8.606;2023-03-16T04:33:12;100436.03;;;0.07;100.00
21956;BME280;11142;49.930;8.606;2023-03-16T04:35:42;100429.31;;;0.03;100.00
21956;BME280;11142;49.930;8.606;2023-03-16T04:38:14;100426.72;;;0.05;100.00
21956;BME280;11142;49.930;8.606;2023-03-16T04:40:53;100425.91;;;0.01;100.00
21956;BME280;11142;49.930;8.606;2023-03-16T04:43:25;100430.22;;;-0.03;100.00
21956;BME280;11142;49.930;8.606;2023-03-16T04:45:59;100424.31;;;-0.05;100.00
21956;BME280;11142;49.930;8.606;2023-03-16T04:48:32;100418.41;;;-0.07;100.00
21956;BME280;11142;49.930;8.606;2023-03-16T04:51:03;100415.91;;;-0.13;100.00
21956;BME280;11142;49.930;8.606;2023-03-16T04:53:36;100408.25;;;-0.13;100.00
21956;BME280;11142;49.930;8.606;2023-03-16T04:56:15;100410.88;;;-0.16;100.00
21956;BME280;11142;49.930;8.606;2023-03-16T04:58:52;100420.13;;;-0.09;100.00
21956;BME280;11142;49.930;8.606;2023-03-16T05:01:27;100424.41;;;-0.12;100.00
21956;BME280;11142;49.930;8.606;2023-03-16T05:03:59;100417.59;;;-0.12;100.00
21956;BME280;11142;49.930;8.606;2023-03-16T05:06:31;100421.06;;;-0.14;100.00
21956;BME280;11142;49.930;8.606;2023-03-16T05:09:02;100434.69;;;-0.17;100.00
21956;BME280;11142;49.930;8.606;2023-03-16T05:11:37;100421.09;;;-0.19;100.00
21956;BME280;11142;49.930;8.606;2023-03-16T05:14:11;100425.31;;;-0.13;100.00
21956;BME280;11142;49.930;8.606;2023-03-16T05:16:53;100429.56;;;-0.15;100.00
21956;BME280;11142;49.930;8.606;2023-03-16T05:19:24;100433.75;;;-0.13;100.00
21956;BME280;11142;49.930;8.606;2023-03-16T05:21:53;100437.19;;;-0.14;100.00
21956;BME280;11142;49.930;8.606;2023-03-16T05:24:22;100426.97;;;-0.11;100.00
21956;BME280;11142;49.930;8.606;2023-03-16T05:26:51;100424.22;;;0.02;100.00
21956;BME280;11142;49.930;8.606;2023-03-16T05:29:21;100425.69;;;0.16;100.00
21956;BME280;11142;49.930;8.606;2023-03-16T05:31:52;100422.97;;;0.27;100.00
21956;BME280;11142;49.930;8.606;2023-03-16T05:34:24;100423.56;;;0.42;100.00
21956;BME280;11142;49.930;8.606;2023-03-16T05:36:53;100422.47;;;0.56;100.00
21956;BME280;11142;49.930;8.606;2023-03-16T05:39:22;100414.06;;;0.50;100.00
21956;BME280;11142;49.930;8.606;2023-03-16T05:41:51;100418.22;;;0.54;100.00
21956;BME280;11142;49.930;8.606;2023-03-16T05:44:38;100410.72;;;0.47;100.00
21956;BME280;11142;49.930;8.606;2023-03-16T05:47:16;100414.28;;;0.37;100.00
21956;BME280;11142;49.930;8.606;2023-03-16T05:49:49;100404.25;;;0.28;100.00
21956;BME280;11142;49.930;8.606;2023-03-16T05:52:32;100400.69;;;0.38;100.00
21956;BME280;11142;49.930;8.606;2023-03-16T05:55:09;100410.72;;;0.45;100.00
21956;BME280;11142;49.930;8.606;2023-03-16T05:57:39;100404.63;;;0.54;100.00
21956;BME280;11142;49.930;8.606;2023-03-16T06:00:10;100406.16;;;0.64;100.00
21956;BME280;11142;49.930;8.606;2023-03-16T06:02:49;100401.97;;;0.60;100.00
21956;BME280;11142;49.930;8.606;2023-03-16T06:05:18;100405.16;;;0.71;100.00
21956;BME280;11142;49.930;8.606;2023-03-16T06:07:48;100413.56;;;0.79;100.00
21956;BME280;11142;49.930;8.606;2023-03-16T06:10:17;100410.53;;;1.02;100.00
21956;BME280;11142;49.930;8.606;2023-03-16T06:12:47;100410.78;;;1.33;100.00
21956;BME280;11142;49.930;8.606;2023-03-16T06:15:19;100405.53;;;1.39;100.00
21956;BME280;11142;49.930;8.606;2023-03-16T06:17:52;100417.00;;;1.61;100.00
21956;BME280;11142;49.930;8.606;2023-03-16T06:20:22;100407.28;;;1.75;100.00
21956;BME280;11142;49.930;8.606;2023-03-16T06:22:50;100415.72;;;1.79;100.00
21956;BME280;11142;49.930;8.606;2023-03-16T06:25:18;100423.59;;;2.08;100.00
21956;BME280;11142;49.930;8.606;2023-03-16T06:27:48;100422.03;;;2.01;100.00
21956;BME280;11142;49.930;8.606;2023-03-16T06:30:16;100423.72;;;2.02;100.00
21956;BME280;11142;49.930;8.606;2023-03-16T06:32:46;100415.31;;;2.32;100.00
21956;BME280;11142;49.930;8.606;2023-03-16T06:35:14;100425.78;;;2.57;100.00
21956;BME280;11142;49.930;8.606;2023-03-16T06:37:56;100432.09;;;2.76;100.00
21956;BME280;11142;49.930;8.606;2023-03-16T06:40:40;100438.22;;;3.04;100.00
21956;BME280;11142;49.930;8.606;2023-03-16T06:43:09;100435.63;;;3.35;100.00
21956;BME280;11142;49.930;8.606;2023-03-16T06:45:38;100437.34;;;3.35;100.00
21956;BME280;11142;49.930;8.606;2023-03-16T06:48:06;100438.28;;;3.61;100.00
21956;BME280;11142;49.930;8.606;2023-03-16T06:50:35;100440.41;;;4.31;100.00
21956;BME280;11142;49.930;8.606;2023-03-16T06:53:04;100447.22;;;4.82;100.00
21956;BME280;11142;49.930;8.606;2023-03-16T06:55:34;100452.22;;;4.87;100.00
21956;BME280;11142;49.930;8.606;2023-03-16T06:58:02;100450.94;;;4.74;100.00
21956;BME280;11142;49.930;8.606;2023-03-16T07:00:32;100449.97;;;4.52;100.00
21956;BME280;11142;49.930;8.606;2023-03-16T07:03:00;100448.81;;;4.60;100.00
21956;BME280;11142;49.930;8.606;2023-03-16T07:05:30;100457.38;;;4.86;100.00
21956;BME280;11142;49.930;8.606;2023-03-16T07:07:59;100446.56;;;5.49;100.00
21956;BME280;11142;49.930;8.606;2023-03-16T07:10:29;100442.13;;;5.52;100.00
21956;BME280;11142;49.930;8.606;2023-03-16T07:12:57;100448.00;;;5.79;100.00
21956;BME280;11142;49.930;8.606;2023-03-16T07:15:25;100443.25;;;5.68;100.00
21956;BME280;11142;49.930;8.606;2023-03-16T07:17:57;100443.78;;;6.00;100.00
21956;BME280;11142;49.930;8.606;2023-03-16T07:20:25;100442.16;;;5.97;100.00
21956;BME280;11142;49.930;8.606;2023-03-16T07:22:57;100446.34;;;6.00;100.00
21956;BME280;11142;49.930;8.606;2023-03-16T07:25:26;100447.38;;;5.72;100.00
21956;BME280;11142;49.930;8.606;2023-03-16T07:27:53;100449.75;;;5.55;100.00
21956;BME280;11142;49.930;8.606;2023-03-16T07:30:27;100450.53;;;5.57;100.00
21956;BME280;11142;49.930;8.606;2023-03-16T07:33:01;100450.50;;;5.80;100.00
21956;BME280;11142;49.930;8.606;2023-03-16T07:35:31;100452.59;;;6.16;100.00
21956;BME280;11142;49.930;8.606;2023-03-16T07:37:59;100459.38;;;6.60;100.00
21956;BME280;11142;49.930;8.606;2023-03-16T07:40:27;100453.91;;;6.88;100.00
21956;BME280;11142;49.930;8.606;2023-03-16T07:43:03;100446.84;;;6.91;100.00
21956;BME280;11142;49.930;8.606;2023-03-16T07:45:46;100452.03;;;6.29;100.00
21956;BME280;11142;49.930;8.606;2023-03-16T07:48:17;100440.66;;;5.92;100.00
21956;BME280;11142;49.930;8.606;2023-03-16T07:50:55;100444.25;;;6.09;100.00
21956;BME280;11142;49.930;8.606;2023-03-16T07:53:23;100445.31;;;6.25;100.00
21956;BME280;11142;49.930;8.606;2023-03-16T07:56:05;100445.56;;;6.19;100.00
21956;BME280;11142;49.930;8.606;2023-03-16T07:58:36;100445.19;;;6.28;100.00
21956;BME280;11142;49.930;8.606;2023-03-16T08:01:04;100441.19;;;6.83;100.00
21956;BME280;11142;49.930;8.606;2023-03-16T08:03:35;100447.31;;;7.01;100.00
21956;BME280;11142;49.930;8.606;2023-03-16T08:06:05;100443.94;;;7.19;100.00
21956;BME280;11142;49.930;8.606;2023-03-16T08:08:34;100438.25;;;7.69;100.00
21956;BME280;11142;49.930;8.606;2023-03-16T08:11:02;100437.88;;;7.95;100.00
21956;BME280;11142;49.930;8.606;2023-03-16T08:13:47;100439.66;;;8.30;95.01
21956;BME280;11142;49.930;8.606;2023-03-16T08:16:20;100440.72;;;8.61;88.78
21956;BME280;11142;49.930;8.606;2023-03-16T08:18:50;100445.59;;;8.32;91.42
21956;BME280;11142;49.930;8.606;2023-03-16T08:21:18;100438.00;;;8.46;93.50
21956;BME280;11142;49.930;8.606;2023-03-16T08:23:47;100444.63;;;8.52;92.62
21956;BME280;11142;49.930;8.606;2023-03-16T08:26:18;100443.84;;;8.84;89.09
21956;BME280;11142;49.930;8.606;2023-03-16T08:28:51;100448.94;;;9.51;87.30
21956;BME280;11142;49.930;8.606;2023-03-16T08:31:22;100440.09;;;10.18;80.24
21956;BME280;11142;49.930;8.606;2023-03-16T08:34:05;100422.56;;;9.76;77.50
21956;BME280;11142;49.930;8.606;2023-03-16T08:36:39;100426.75;;;9.79;78.01
21956;BME280;11142;49.930;8.606;2023-03-16T08:39:11;100431.72;;;10.13;76.21
21956;BME280;11142;49.930;8.606;2023-03-16T08:41:43;100433.28;;;10.17;76.11
21956;BME280;11142;49.930;8.606;2023-03-16T08:44:25;100430.91;;;9.97;78.71
21956;BME280;11142;49.930;8.606;2023-03-16T08:46:54;100428.25;;;9.67;79.20
21956;BME280;11142;49.930;8.606;2023-03-16T08:49:26;100423.63;;;9.41;78.14
21956;BME280;11142;49.930;8.606;2023-03-16T08:52:01;100431.50;;;10.02;82.93
21956;BME280;11142;49.930;8.606;2023-03-16T08:54:31;100419.34;;;10.18;77.82
21956;BME280;11142;49.930;8.606;2023-03-16T08:57:02;100420.31;;;10.47;73.01
21956;BME280;11142;49.930;8.606;2023-03-16T08:59:30;100423.31;;;10.69;72.12
21956;BME280;11142;49.930;8.606;2023-03-16T09:01:59;100426.22;;;10.79;72.60
21956;BME280;11142;49.930;8.606;2023-03-16T09:04:29;100422.00;;;11.06;76.29
21956;BME280;11142;49.930;8.606;2023-03-16T09:06:58;100425.25;;;11.38;72.20
21956;BME280;11142;49.930;8.606;2023-03-16T09:09:35;100419.56;;;12.00;73.57
21956;BME280;11142;49.930;8.606;2023-03-16T09:12:04;100416.50;;;12.47;65.08
21956;BME280;11142;49.930;8.606;2023-03-16T09:14:33;100414.13;;;12.69;56.11
21956;BME280;11142;49.930;8.606;2023-03-16T09:17:03;100410.81;;;12.28;64.35
21956;BME280;11142;49.930;8.606;2023-03-16T09:19:34;100415.72;;;12.33;59.25
21956;BME280;11142;49.930;8.606;2023-03-16T09:22:16;100424.97;;;12.76;62.51
21956;BME280;11142;49.930;8.606;2023-03-16T09:24:45;100419.47;;;14.04;54.10
21956;BME280;11142;49.930;8.606;2023-03-16T09:27:14;100418.78;;;14.60;50.94
21956;BME280;11142;49.930;8.606;2023-03-16T09:29:42;100410.56;;;13.95;51.47
21956;BME280;11142;49.930;8.606;2023-03-16T09:32:11;100414.72;;;13.61;52.37
21956;BME280;11142;49.930;8.606;2023-03-16T09:34:41;100406.09;;;13.36;57.19
21956;BME280;11142;49.930;8.606;2023-03-16T09:37:10;100410.47;;;13.84;59.68
21956;BME280;11142;49.930;8.606;2023-03-16T09:39:37;100417.00;;;15.18;58.03
21956;BME280;11142;49.930;8.606;2023-03-16T09:42:07;100408.88;;;16.19;56.05
21956;BME280;11142;49.930;8.606;2023-03-16T09:44:42;100400.66;;;17.07;45.07
21956;BME280;11142;49.930;8.606;2023-03-16T09:47:13;100397.28;;;16.33;43.18
21956;BME280;11142;49.930;8.606;2023-03-16T09:49:44;100399.09;;;15.89;46.09
21956;BME280;11142;49.930;8.606;2023-03-16T09:52:19;100398.22;;;16.32;46.76
21956;BME280;11142;49.930;8.606;2023-03-16T09:54:50;100401.69;;;16.94;42.82
21956;BME280;11142;49.930;8.606;2023-03-16T09:57:23;100402.25;;;17.28;45.15
21956;BME280;11142;49.930;8.606;2023-03-16T10:00:09;100398.44;;;17.72;40.39
21956;BME280;11142;49.930;8.606;2023-03-16T10:02:41;100392.34;;;17.02;42.00
21956;BME280;11142;49.930;8.606;2023-03-16T10:05:14;100395.03;;;16.28;45.31
21956;BME280;11142;49.930;8.606;2023-03-16T10:07:45;100394.28;;;17.30;45.25
21956;BME280;11142;49.930;8.606;2023-03-16T10:10:19;100395.91;;;19.42;40.98
21956;BME280;11142;49.930;8.606;2023-03-16T10:12:49;100404.97;;;19.84;36.19
21956;BME280;11142;49.930;8.606;2023-03-16T10:15:19;100395.03;;;18.48;36.39
21956;BME280;11142;49.930;8.606;2023-03-16T10:17:50;100391.59;;;19.04;38.58
21956;BME280;11142;49.930;8.606;2023-03-16T10:20:23;100395.38;;;19.66;37.50
21956;BME280;11142;49.930;8.606;2023-03-16T10:22:53;100396.81;;;18.77;36.27
21956;BME280;11142;49.930;8.606;2023-03-16T10:25:24;100391.41;;;19.25;35.74
21956;BME280;11142;49.930;8.606;2023-03-16T10:27:54;100388.91;;;20.66;35.36
21956;BME280;11142;49.930;8.606;2023-03-16T10:30:23;100385.72;;;21.98;35.48
21956;BME280;11142;49.930;8.606;2023-03-16T10:32:54;100377.47;;;22.49;31.61
21956;BME280;11142;49.930;8.606;2023-03-16T10:35:30;100379.47;;;22.63;30.71
21956;BME280;11142;49.930;8.606;2023-03-16T10:38:01;100396.56;;;23.63;29.62
21956;BME280;11142;49.930;8.606;2023-03-16T10:40:30;100393.00;;;24.69;28.75
21956;BME280;11142;49.930;8.606;2023-03-16T10:43:03;100389.94;;;23.67;28.06
21956;BME280;11142;49.930;8.606;2023-03-16T10:45:33;100383.00;;;24.19;29.15
21956;BME280;11142;49.930;8.606;2023-03-16T10:48:04;100384.84;;;24.71;29.20
21956;BME280;11142;49.930;8.606;2023-03-16T10:50:34;100376.59;;;24.51;28.98
21956;BME280;11142;49.930;8.606;2023-03-16T10:53:03;100384.00;;;24.56;27.00
21956;BME280;11142;49.930;8.606;2023-03-16T10:55:39;100382.88;;;23.82;28.82
21956;BME280;11142;49.930;8.606;2023-03-16T10:58:08;100370.00;;;18.16;35.60
21956;BME280;11142;49.930;8.606;2023-03-16T11:00:37;100365.59;;;17.97;37.76
21956;BME280;11142;49.930;8.606;2023-03-16T11:03:12;100353.66;;;19.06;35.75
21956;BME280;11142;49.930;8.606;2023-03-16T11:05:42;100363.03;;;15.28;42.98
21956;BME280;11142;49.930;8.606;2023-03-16T11:08:12;100355.47;;;18.21;40.36
21956;BME280;11142;49.930;8.606;2023-03-16T11:10:43;100352.16;;;19.04;37.51
21956;BME280;11142;49.930;8.606;2023-03-16T11:13:21;100359.81;;;23.60;33.15
21956;BME280;11142;49.930;8.606;2023-03-16T11:15:54;100357.09;;;25.11;27.16
21956;BME280;11142;49.930;8.606;2023-03-16T11:18:27;100356.66;;;25.58;25.49
21956;BME280;11142;49.930;8.606;2023-03-16T11:20:59;100354.69;;;27.48;23.59
21956;BME280;11142;49.930;8.606;2023-03-16T11:23:32;100356.38;;;29.70;22.73
21956;BME280;11142;49.930;8.606;2023-03-16T11:26:01;100355.38;;;30.27;22.90
21956;BME280;11142;49.930;8.606;2023-03-16T11:28:32;100350.84;;;30.95;21.76
21956;BME280;11142;49.930;8.606;2023-03-16T11:31:05;100353.53;;;30.95;21.55
21956;BME280;11142;49.930;8.606;2023-03-16T11:33:37;100350.06;;;27.28;21.78
21956;BME280;11142;49.930;8.606;2023-03-16T11:36:11;100344.13;;;29.87;21.83
21956;BME280;11142;49.930;8.606;2023-03-16T11:38:44;100345.94;;;32.18;20.33
21956;BME280;11142;49.930;8.606;2023-03-16T11:41:18;100347.09;;;32.92;17.49
21956;BME280;11142;49.930;8.606;2023-03-16T11:43:51;100340.50;;;31.65;19.30
21956;BME280;11142;49.930;8.606;2023-03-16T11:46:21;100330.53;;;32.25;18.67
21956;BME280;11142;49.930;8.606;2023-03-16T11:48:56;100338.34;;;32.15;18.25
21956;BME280;11142;49.930;8.606;2023-03-16T11:51:33;100326.03;;;31.18;18.25
21956;BME280;11142;49.930;8.606;2023-03-16T11:54:15;100322.44;;;29.64;20.17
21956;BME280;11142;49.930;8.606;2023-03-16T11:56:51;100309.25;;;25.47;27.00
21956;BME280;11142;49.930;8.606;2023-03-16T12:02:19;100301.53;;;27.39;23.90
21956;BME280;11142;49.930;8.606;2023-03-16T12:04:57;100291.47;;;25.47;24.37
21956;BME280;11142;49.930;8.606;2023-03-16T12:07:37;100277.84;;;24.70;27.09
21956;BME280;11142;49.930;8.606;2023-03-16T12:10:16;100278.00;;;24.02;25.92
21956;BME280;11142;49.930;8.606;2023-03-16T12:12:54;100282.72;;;23.92;29.04
21956;BME280;11142;49.930;8.606;2023-03-16T12:15:30;100271.00;;;24.09;27.14
21956;BME280;11142;49.930;8.606;2023-03-16T12:18:01;100269.25;;;23.79;27.02
21956;BME280;11142;49.930;8.606;2023-03-16T12:20:33;100269.53;;;24.73;25.99
21956;BME280;11142;49.930;8.606;2023-03-16T12:23:04;100270.25;;;25.11;25.30
21956;BME280;11142;49.930;8.606;2023-03-16T12:25:35;100272.72;;;25.49;25.75
21956;BME280;11142;49.930;8.606;2023-03-16T12:28:04;100267.69;;;25.03;26.06
21956;BME280;11142;49.930;8.606;2023-03-16T12:30:35;100275.53;;;24.23;26.93
21956;BME280;11142;49.930;8.606;2023-03-16T12:33:05;100272.09;;;24.67;26.86
21956;BME280;11142;49.930;8.606;2023-03-16T12:35:41;100273.25;;;25.80;24.87
21956;BME280;11142;49.930;8.606;2023-03-16T12:38:16;100264.88;;;25.83;24.05
21956;BME280;11142;49.930;8.606;2023-03-16T12:40:57;100266.13;;;25.66;24.08
21956;BME280;11142;49.930;8.606;2023-03-16T12:43:33;100259.19;;;27.10;23.90
21956;BME280;11142;49.930;8.606;2023-03-16T12:46:09;100252.56;;;29.79;21.95
21956;BME280;11142;49.930;8.606;2023-03-16T12:48:41;100247.66;;;31.46;20.62
21956;BME280;11142;49.930;8.606;2023-03-16T12:51:11;100253.00;;;31.87;19.31
21956;BME280;11142;49.930;8.606;2023-03-16T12:53:42;100249.00;;;29.91;21.17
21956;BME280;11142;49.930;8.606;2023-03-16T12:56:11;100243.72;;;28.38;22.50
21956;BME280;11142;49.930;8.606;2023-03-16T12:58:39;100247.94;;;32.44;18.12
21956;BME280;11142;49.930;8.606;2023-03-16T13:01:09;100251.72;;;37.00;15.90
21956;BME280;11142;49.930;8.606;2023-03-16T13:03:38;100242.34;;;37.63;14.70
21956;BME280;11142;49.930;8.606;2023-03-16T13:06:15;100241.19;;;37.04;15.70
21956;BME280;11142;49.930;8.606;2023-03-16T13:08:47;100255.28;;;40.42;13.94
21956;BME280;11142;49.930;8.606;2023-03-16T13:11:17;100257.53;;;43.61;12.20
21956;BME280;11142;49.930;8.606;2023-03-16T13:13:52;100248.03;;;43.81;10.90
21956;BME280;11142;49.930;8.606;2023-03-16T13:16:33;100220.66;;;37.99;13.44
21956;BME280;11142;49.930;8.606;2023-03-16T13:19:15;100203.78;;;32.17;17.06